Terminal Aerodrome Forecast
Issued by NWS

Home | Current Version | Previous Version | Text Only | Print | Product List | Glossary On
Versions: 1 2 3 4 5 6 7 8 9 10 11 12 13 14
697
FTUS43 KUNR 262320
TAFGCC
TAF
KGCC 262320Z 2700/2724 02012G20KT P6SM SCT120
      TEMPO 2705/2708 -TSRA BKN100CB
     FM270900 VRB05KT P6SM SCT050 SCT120=

USA.gov is the U.S. government's official web portal to all federal, state and local government web resources and services.